ABL8183 RKPK-RKPC
Flight info
| Callsign | ABL8183 |
|---|---|
| Flight time | 0h 38m |
| Altitude | 24000 |
| Route | BURIM3 ENGOT Y572 UPGOS UPGOS2M |
| Aircraft | A321/M-SDE3FGHIRWY/LB1 |
Departure
| Time | 2026-05-07 10:26 |
|---|---|
| Airport | Gimhae International Airport (RKPK) |
Arrival
| Time | 2026-05-07 11:05 |
|---|---|
| Airport | Jeju International Airport (RKPC) |
| Time | Latitude | Longitude | Altitude | Speed | Heading |
|---|---|---|---|---|---|
| 2026-05-07 09:56 | 35.17008 | 128.94747 | 24 ft | 0 kts | 23° |
| 2026-05-07 10:15 | 35.17007 | 128.94747 | 23 ft | 1 kts | 23° |
| 2026-05-07 10:15 | 35.16986 | 128.94735 | 25 ft | 4 kts | 21° |
| 2026-05-07 10:15 | 35.16961 | 128.94725 | 25 ft | 4 kts | 11° |
| 2026-05-07 10:15 | 35.16936 | 128.94721 | 25 ft | 2 kts | 6° |
| 2026-05-07 10:16 | 35.16930 | 128.94720 | 23 ft | 0 kts | 6° |
| 2026-05-07 10:18 | 35.16937 | 128.94708 | 24 ft | 4 kts | 293° |
| 2026-05-07 10:18 | 35.16955 | 128.94651 | 23 ft | 11 kts | 291° |
| 2026-05-07 10:18 | 35.16992 | 128.94543 | 23 ft | 17 kts | 288° |
| 2026-05-07 10:19 | 35.16993 | 128.94423 | 26 ft | 15 kts | 264° |
| 2026-05-07 10:19 | 35.17029 | 128.94317 | 23 ft | 15 kts | 336° |
| 2026-05-07 10:19 | 35.17133 | 128.94300 | 23 ft | 16 kts | 354° |
| 2026-05-07 10:19 | 35.17253 | 128.94285 | 24 ft | 17 kts | 354° |
| 2026-05-07 10:20 | 35.17377 | 128.94269 | 25 ft | 19 kts | 354° |
| 2026-05-07 10:20 | 35.17504 | 128.94253 | 23 ft | 17 kts | 354° |
| 2026-05-07 10:20 | 35.17628 | 128.94237 | 23 ft | 19 kts | 354° |
| 2026-05-07 10:20 | 35.17745 | 128.94222 | 25 ft | 14 kts | 354° |
| 2026-05-07 10:21 | 35.17845 | 128.94210 | 26 ft | 15 kts | 354° |
| 2026-05-07 10:21 | 35.17954 | 128.94196 | 24 ft | 16 kts | 354° |
| 2026-05-07 10:21 | 35.18060 | 128.94183 | 23 ft | 16 kts | 354° |
| 2026-05-07 10:21 | 35.18174 | 128.94168 | 24 ft | 17 kts | 354° |
| 2026-05-07 10:22 | 35.18298 | 128.94152 | 25 ft | 19 kts | 354° |
| 2026-05-07 10:22 | 35.18430 | 128.94135 | 25 ft | 20 kts | 354° |
| 2026-05-07 10:22 | 35.18570 | 128.94118 | 23 ft | 21 kts | 354° |
| 2026-05-07 10:22 | 35.18717 | 128.94099 | 25 ft | 22 kts | 354° |
| 2026-05-07 10:23 | 35.18864 | 128.94081 | 25 ft | 21 kts | 354° |
| 2026-05-07 10:23 | 35.19010 | 128.94062 | 24 ft | 22 kts | 354° |
| 2026-05-07 10:23 | 35.19162 | 128.94043 | 23 ft | 17 kts | 354° |
| 2026-05-07 10:23 | 35.19272 | 128.94029 | 23 ft | 17 kts | 354° |
| 2026-05-07 10:24 | 35.19376 | 128.94010 | 23 ft | 12 kts | 339° |
| 2026-05-07 10:24 | 35.19401 | 128.93922 | 23 ft | 12 kts | 265° |
| 2026-05-07 10:24 | 35.19393 | 128.93816 | 23 ft | 13 kts | 263° |
| 2026-05-07 10:24 | 35.19341 | 128.93754 | 24 ft | 11 kts | 182° |
| 2026-05-07 10:25 | 35.19319 | 128.93756 | 24 ft | 1 kts | 174° |
| 2026-05-07 10:25 | 35.19309 | 128.93757 | 24 ft | 4 kts | 174° |
| 2026-05-07 10:25 | 35.19043 | 128.93791 | 30 ft | 77 kts | 174° |
| 2026-05-07 10:25 | 35.18268 | 128.93890 | 22 ft | 143 kts | 174° |
| 2026-05-07 10:26 | 35.17129 | 128.94032 | 277 ft | 171 kts | 175° |
| 2026-05-07 10:26 | 35.15949 | 128.94160 | 1008 ft | 171 kts | 178° |
| 2026-05-07 10:26 | 35.14722 | 128.94219 | 1581 ft | 185 kts | 180° |
| 2026-05-07 10:26 | 35.13398 | 128.94248 | 1962 ft | 198 kts | 181° |
| 2026-05-07 10:27 | 35.11957 | 128.94282 | 2233 ft | 213 kts | 181° |
| 2026-05-07 10:27 | 35.10515 | 128.94323 | 2660 ft | 217 kts | 181° |
| 2026-05-07 10:27 | 35.08938 | 128.94374 | 3085 ft | 224 kts | 181° |
| 2026-05-07 10:27 | 35.07327 | 128.94424 | 3464 ft | 237 kts | 182° |
| 2026-05-07 10:28 | 35.05668 | 128.94476 | 4214 ft | 240 kts | 182° |
| 2026-05-07 10:28 | 35.03982 | 128.94533 | 4828 ft | 246 kts | 182° |
| 2026-05-07 10:28 | 35.02272 | 128.94590 | 4979 ft | 246 kts | 182° |
| 2026-05-07 10:28 | 35.00570 | 128.94646 | 5007 ft | 246 kts | 182° |
| 2026-05-07 10:29 | 34.98846 | 128.94704 | 5014 ft | 255 kts | 181° |
| 2026-05-07 10:29 | 34.97058 | 128.94779 | 5012 ft | 265 kts | 181° |
| 2026-05-07 10:29 | 34.95210 | 128.94867 | 5013 ft | 266 kts | 181° |
| 2026-05-07 10:30 | 34.91519 | 128.94886 | 5008 ft | 262 kts | 196° |
| 2026-05-07 10:30 | 34.89912 | 128.93943 | 5011 ft | 257 kts | 221° |
| 2026-05-07 10:30 | 34.88850 | 128.92198 | 5398 ft | 260 kts | 248° |
| 2026-05-07 10:30 | 34.88375 | 128.90062 | 6241 ft | 262 kts | 257° |
| 2026-05-07 10:31 | 34.87974 | 128.87891 | 7017 ft | 264 kts | 257° |
| 2026-05-07 10:31 | 34.87573 | 128.85696 | 7758 ft | 267 kts | 257° |
| 2026-05-07 10:31 | 34.87166 | 128.83480 | 8474 ft | 270 kts | 257° |
| 2026-05-07 10:31 | 34.86752 | 128.81233 | 9189 ft | 273 kts | 257° |
| 2026-05-07 10:32 | 34.86330 | 128.78962 | 9884 ft | 276 kts | 257° |
| 2026-05-07 10:32 | 34.85905 | 128.76648 | 10342 ft | 289 kts | 257° |
| 2026-05-07 10:32 | 34.85451 | 128.74172 | 10475 ft | 311 kts | 257° |
| 2026-05-07 10:32 | 34.84972 | 128.71558 | 10813 ft | 324 kts | 257° |
| 2026-05-07 10:33 | 34.84476 | 128.68866 | 11410 ft | 327 kts | 257° |
| 2026-05-07 10:33 | 34.83980 | 128.66167 | 12147 ft | 326 kts | 257° |
| 2026-05-07 10:33 | 34.83485 | 128.63486 | 12752 ft | 329 kts | 257° |
| 2026-05-07 10:33 | 34.82988 | 128.60797 | 13343 ft | 331 kts | 257° |
| 2026-05-07 10:34 | 34.82478 | 128.58022 | 13999 ft | 333 kts | 257° |
| 2026-05-07 10:34 | 34.81976 | 128.55300 | 14632 ft | 334 kts | 256° |
| 2026-05-07 10:34 | 34.81463 | 128.52534 | 15241 ft | 336 kts | 255° |
| 2026-05-07 10:34 | 34.80648 | 128.49869 | 15812 ft | 338 kts | 243° |
| 2026-05-07 10:35 | 34.79339 | 128.47491 | 16382 ft | 340 kts | 231° |
| 2026-05-07 10:35 | 34.77770 | 128.45326 | 16957 ft | 342 kts | 230° |
| 2026-05-07 10:35 | 34.76196 | 128.43154 | 17523 ft | 343 kts | 230° |
| 2026-05-07 10:35 | 34.74622 | 128.40966 | 17823 ft | 344 kts | 230° |
| 2026-05-07 10:36 | 34.73053 | 128.38779 | 17890 ft | 344 kts | 230° |
| 2026-05-07 10:36 | 34.71481 | 128.36589 | 17897 ft | 343 kts | 230° |
| 2026-05-07 10:36 | 34.69915 | 128.34411 | 17896 ft | 342 kts | 230° |
| 2026-05-07 10:36 | 34.68346 | 128.32233 | 17897 ft | 342 kts | 230° |
| 2026-05-07 10:37 | 34.66781 | 128.30062 | 17897 ft | 342 kts | 230° |
| 2026-05-07 10:37 | 34.65211 | 128.27887 | 17902 ft | 343 kts | 230° |
| 2026-05-07 10:37 | 34.63641 | 128.25710 | 17906 ft | 343 kts | 230° |
| 2026-05-07 10:37 | 34.62069 | 128.23535 | 17905 ft | 343 kts | 230° |
| 2026-05-07 10:38 | 34.60495 | 128.21359 | 17903 ft | 343 kts | 230° |
| 2026-05-07 10:38 | 34.58923 | 128.19186 | 17906 ft | 343 kts | 230° |
| 2026-05-07 10:38 | 34.57352 | 128.17011 | 17906 ft | 343 kts | 230° |
| 2026-05-07 10:38 | 34.55780 | 128.14837 | 17907 ft | 343 kts | 230° |
| 2026-05-07 10:39 | 34.54204 | 128.12660 | 17913 ft | 343 kts | 230° |
| 2026-05-07 10:39 | 34.52631 | 128.10482 | 17918 ft | 343 kts | 230° |
| 2026-05-07 10:39 | 34.51059 | 128.08307 | 17924 ft | 344 kts | 230° |
| 2026-05-07 10:39 | 34.49480 | 128.06132 | 17937 ft | 344 kts | 230° |
| 2026-05-07 10:40 | 34.47899 | 128.03958 | 17931 ft | 344 kts | 230° |
| 2026-05-07 10:40 | 34.46337 | 128.01811 | 17932 ft | 344 kts | 230° |
| 2026-05-07 10:40 | 34.44760 | 127.99641 | 17937 ft | 343 kts | 230° |
| 2026-05-07 10:40 | 34.43182 | 127.97470 | 17935 ft | 343 kts | 230° |
| 2026-05-07 10:41 | 34.41605 | 127.95306 | 17936 ft | 343 kts | 230° |
| 2026-05-07 10:41 | 34.40028 | 127.93143 | 17940 ft | 343 kts | 230° |
| 2026-05-07 10:41 | 34.38450 | 127.90980 | 17942 ft | 343 kts | 230° |
| 2026-05-07 10:41 | 34.36872 | 127.88818 | 17943 ft | 343 kts | 230° |
| 2026-05-07 10:42 | 34.35295 | 127.86656 | 17943 ft | 342 kts | 230° |
| 2026-05-07 10:42 | 34.33721 | 127.84503 | 17941 ft | 342 kts | 230° |
| 2026-05-07 10:42 | 34.32142 | 127.82344 | 17941 ft | 342 kts | 230° |
| 2026-05-07 10:42 | 34.30563 | 127.80183 | 17941 ft | 342 kts | 230° |
| 2026-05-07 10:43 | 34.28985 | 127.78025 | 17942 ft | 342 kts | 230° |
| 2026-05-07 10:43 | 34.27406 | 127.75869 | 17946 ft | 342 kts | 230° |
| 2026-05-07 10:43 | 34.25827 | 127.73714 | 17943 ft | 343 kts | 230° |
| 2026-05-07 10:43 | 34.24248 | 127.71556 | 17946 ft | 343 kts | 230° |
| 2026-05-07 10:44 | 34.22668 | 127.69397 | 17951 ft | 343 kts | 230° |
| 2026-05-07 10:44 | 34.21090 | 127.67243 | 17950 ft | 342 kts | 230° |
| 2026-05-07 10:44 | 34.19508 | 127.65092 | 17950 ft | 342 kts | 230° |
| 2026-05-07 10:44 | 34.17929 | 127.62944 | 17953 ft | 342 kts | 230° |
| 2026-05-07 10:45 | 34.16349 | 127.60797 | 17953 ft | 342 kts | 230° |
| 2026-05-07 10:45 | 34.14767 | 127.58648 | 17951 ft | 342 kts | 230° |
| 2026-05-07 10:45 | 34.13189 | 127.56504 | 17947 ft | 341 kts | 230° |
| 2026-05-07 10:45 | 34.11609 | 127.54364 | 17945 ft | 342 kts | 230° |
| 2026-05-07 10:46 | 34.10031 | 127.52228 | 17909 ft | 339 kts | 230° |
| 2026-05-07 10:46 | 34.08493 | 127.50143 | 17650 ft | 327 kts | 230° |
| 2026-05-07 10:46 | 34.07009 | 127.48136 | 17419 ft | 315 kts | 230° |
| 2026-05-07 10:46 | 34.05562 | 127.46180 | 17158 ft | 311 kts | 230° |
| 2026-05-07 10:47 | 34.04122 | 127.44236 | 16904 ft | 310 kts | 230° |
| 2026-05-07 10:47 | 34.02693 | 127.42299 | 16654 ft | 309 kts | 230° |
| 2026-05-07 10:47 | 34.01263 | 127.40365 | 16406 ft | 308 kts | 230° |
| 2026-05-07 10:47 | 33.99837 | 127.38439 | 16152 ft | 308 kts | 230° |
| 2026-05-07 10:48 | 33.98465 | 127.36464 | 15898 ft | 307 kts | 238° |
| 2026-05-07 10:48 | 33.97642 | 127.34109 | 15648 ft | 307 kts | 257° |
| 2026-05-07 10:48 | 33.97578 | 127.31561 | 15338 ft | 305 kts | 276° |
| 2026-05-07 10:48 | 33.98291 | 127.29148 | 14902 ft | 310 kts | 296° |
| 2026-05-07 10:49 | 33.99518 | 127.27041 | 14454 ft | 310 kts | 301° |
| 2026-05-07 10:49 | 34.00778 | 127.24943 | 14008 ft | 308 kts | 301° |
| 2026-05-07 10:49 | 34.02021 | 127.22862 | 13588 ft | 305 kts | 301° |
| 2026-05-07 10:49 | 34.03251 | 127.20795 | 13179 ft | 301 kts | 301° |
| 2026-05-07 10:50 | 34.04446 | 127.18771 | 12931 ft | 293 kts | 298° |
| 2026-05-07 10:50 | 34.05303 | 127.16613 | 12632 ft | 281 kts | 283° |
| 2026-05-07 10:50 | 34.05632 | 127.14318 | 12379 ft | 276 kts | 270° |
| 2026-05-07 10:50 | 34.05623 | 127.12006 | 12130 ft | 275 kts | 268° |
| 2026-05-07 10:51 | 34.05617 | 127.09698 | 11877 ft | 275 kts | 268° |
| 2026-05-07 10:51 | 34.05618 | 127.07395 | 11670 ft | 275 kts | 269° |
| 2026-05-07 10:51 | 34.05585 | 127.05094 | 11390 ft | 273 kts | 262° |
| 2026-05-07 10:51 | 34.04925 | 127.02978 | 11087 ft | 273 kts | 235° |
| 2026-05-07 10:52 | 34.03495 | 127.01482 | 10732 ft | 278 kts | 208° |
| 2026-05-07 10:52 | 34.01594 | 127.00971 | 10319 ft | 285 kts | 187° |
| 2026-05-07 10:52 | 33.99610 | 127.00875 | 9907 ft | 286 kts | 186° |
| 2026-05-07 10:52 | 33.97628 | 127.00796 | 9500 ft | 284 kts | 185° |
| 2026-05-07 10:53 | 33.95657 | 127.00718 | 9192 ft | 280 kts | 185° |
| 2026-05-07 10:53 | 33.93752 | 127.00641 | 9063 ft | 268 kts | 185° |
| 2026-05-07 10:53 | 33.91953 | 127.00389 | 8923 ft | 254 kts | 199° |
| 2026-05-07 10:53 | 33.90371 | 126.99558 | 8730 ft | 243 kts | 216° |
| 2026-05-07 10:54 | 33.89024 | 126.98346 | 8554 ft | 242 kts | 220° |
| 2026-05-07 10:54 | 33.87699 | 126.97111 | 8335 ft | 241 kts | 220° |
| 2026-05-07 10:54 | 33.86380 | 126.95883 | 8098 ft | 239 kts | 220° |
| 2026-05-07 10:54 | 33.85067 | 126.94668 | 7863 ft | 238 kts | 220° |
| 2026-05-07 10:55 | 33.83756 | 126.93457 | 7627 ft | 237 kts | 220° |
| 2026-05-07 10:55 | 33.82890 | 126.92657 | 7469 ft | 236 kts | 220° |
| 2026-05-07 10:55 | 33.81590 | 126.91456 | 7238 ft | 236 kts | 220° |
| 2026-05-07 10:55 | 33.80292 | 126.90253 | 7002 ft | 235 kts | 220° |
| 2026-05-07 10:56 | 33.78997 | 126.89052 | 6765 ft | 234 kts | 220° |
| 2026-05-07 10:56 | 33.77276 | 126.87451 | 6453 ft | 233 kts | 220° |
| 2026-05-07 10:56 | 33.75996 | 126.86264 | 6226 ft | 232 kts | 220° |
| 2026-05-07 10:56 | 33.75151 | 126.85481 | 6069 ft | 231 kts | 220° |
| 2026-05-07 10:57 | 33.73879 | 126.84303 | 5840 ft | 231 kts | 220° |
| 2026-05-07 10:57 | 33.72611 | 126.83132 | 5612 ft | 229 kts | 220° |
| 2026-05-07 10:57 | 33.70940 | 126.81592 | 5309 ft | 228 kts | 220° |
| 2026-05-07 10:57 | 33.69680 | 126.80434 | 5082 ft | 227 kts | 219° |
| 2026-05-07 10:58 | 33.68426 | 126.79280 | 4857 ft | 226 kts | 220° |
| 2026-05-07 10:58 | 33.67583 | 126.78502 | 4703 ft | 226 kts | 220° |
| 2026-05-07 10:58 | 33.66341 | 126.77355 | 4480 ft | 225 kts | 220° |
| 2026-05-07 10:58 | 33.65142 | 126.76167 | 4255 ft | 223 kts | 228° |
| 2026-05-07 10:59 | 33.64234 | 126.74678 | 4058 ft | 222 kts | 240° |
| 2026-05-07 10:59 | 33.63434 | 126.73100 | 3819 ft | 221 kts | 240° |
| 2026-05-07 10:59 | 33.62644 | 126.71553 | 3585 ft | 213 kts | 240° |
| 2026-05-07 10:59 | 33.61887 | 126.70072 | 3386 ft | 203 kts | 240° |
| 2026-05-07 11:00 | 33.61161 | 126.68651 | 3187 ft | 198 kts | 240° |
| 2026-05-07 11:00 | 33.60457 | 126.67270 | 3008 ft | 188 kts | 240° |
| 2026-05-07 11:00 | 33.59797 | 126.65981 | 2821 ft | 176 kts | 240° |
| 2026-05-07 11:00 | 33.59178 | 126.64772 | 2650 ft | 166 kts | 240° |
| 2026-05-07 11:01 | 33.58590 | 126.63622 | 2486 ft | 157 kts | 240° |
| 2026-05-07 11:01 | 33.58041 | 126.62550 | 2340 ft | 150 kts | 240° |
| 2026-05-07 11:01 | 33.57497 | 126.61490 | 2191 ft | 148 kts | 240° |
| 2026-05-07 11:01 | 33.56964 | 126.60443 | 2048 ft | 147 kts | 241° |
| 2026-05-07 11:02 | 33.56421 | 126.59381 | 1890 ft | 147 kts | 240° |
| 2026-05-07 11:02 | 33.55885 | 126.58336 | 1750 ft | 147 kts | 240° |
| 2026-05-07 11:02 | 33.55362 | 126.57318 | 1556 ft | 141 kts | 240° |
| 2026-05-07 11:02 | 33.54850 | 126.56325 | 1360 ft | 140 kts | 240° |
| 2026-05-07 11:03 | 33.54333 | 126.55336 | 1163 ft | 140 kts | 239° |
| 2026-05-07 11:03 | 33.53811 | 126.54356 | 961 ft | 139 kts | 240° |
| 2026-05-07 11:03 | 33.53310 | 126.53368 | 826 ft | 139 kts | 241° |
| 2026-05-07 11:03 | 33.52816 | 126.52376 | 668 ft | 139 kts | 240° |
| 2026-05-07 11:04 | 33.52312 | 126.51388 | 474 ft | 139 kts | 240° |
| 2026-05-07 11:04 | 33.51807 | 126.50398 | 310 ft | 140 kts | 240° |
| 2026-05-07 11:04 | 33.51309 | 126.49428 | 145 ft | 138 kts | 239° |
| 2026-05-07 11:04 | 33.50882 | 126.48584 | 136 ft | 95 kts | 238° |
| 2026-05-07 11:05 | 33.50637 | 126.48108 | 135 ft | 49 kts | 238° |
| 2026-05-07 11:05 | 33.50494 | 126.47831 | 136 ft | 31 kts | 237° |
| 2026-05-07 11:05 | 33.50398 | 126.47748 | 136 ft | 18 kts | 169° |
| 2026-05-07 11:05 | 33.50317 | 126.47817 | 135 ft | 11 kts | 105° |
| 2026-05-07 11:06 | 33.50352 | 126.47935 | 135 ft | 20 kts | 58° |
| 2026-05-07 11:06 | 33.50421 | 126.48070 | 135 ft | 21 kts | 58° |
| 2026-05-07 11:06 | 33.50512 | 126.48248 | 135 ft | 29 kts | 58° |
| 2026-05-07 11:06 | 33.50607 | 126.48429 | 135 ft | 18 kts | 57° |
| 2026-05-07 11:07 | 33.50678 | 126.48568 | 135 ft | 15 kts | 59° |
| 2026-05-07 11:07 | 33.50741 | 126.48693 | 135 ft | 11 kts | 59° |
| 2026-05-07 11:07 | 33.50790 | 126.48796 | 135 ft | 15 kts | 71° |
| 2026-05-07 11:07 | 33.50753 | 126.48878 | 135 ft | 11 kts | 147° |
| 2026-05-07 11:08 | 33.50703 | 126.48953 | 135 ft | 9 kts | 88° |
| 2026-05-07 11:08 | 33.50696 | 126.49020 | 135 ft | 5 kts | 148° |
| 2026-05-07 11:08 | 33.50658 | 126.49043 | 135 ft | 0 kts | 150° |
| 2026-05-07 11:08 | 33.50647 | 126.49051 | 135 ft | 3 kts | 150° |
| 2026-05-07 11:09 | 33.50640 | 126.49056 | 135 ft | 0 kts | 149° |
| 2026-05-07 11:09 | 33.50639 | 126.49056 | 135 ft | 0 kts | 149° |